sensor_id;sensor_type;location;lat;lon;timestamp;P1;durP1;ratioP1;P2;durP2;ratioP2
9276;SDS011;4676;42.678;23.244;2022-08-19T00:01:59;5.10;;;4.80;;
9276;SDS011;4676;42.678;23.244;2022-08-19T00:04:27;5.30;;;5.00;;
9276;SDS011;4676;42.678;23.244;2022-08-19T00:06:55;5.50;;;5.00;;
9276;SDS011;4676;42.678;23.244;2022-08-19T00:09:22;4.90;;;4.70;;
9276;SDS011;4676;42.678;23.244;2022-08-19T00:11:50;4.97;;;4.67;;
9276;SDS011;4676;42.678;23.244;2022-08-19T00:14:18;4.83;;;4.53;;
9276;SDS011;4676;42.678;23.244;2022-08-19T00:16:47;5.30;;;4.97;;
9276;SDS011;4676;42.678;23.244;2022-08-19T00:19:17;5.73;;;5.43;;
9276;SDS011;4676;42.678;23.244;2022-08-19T00:21:44;5.57;;;4.93;;
9276;SDS011;4676;42.678;23.244;2022-08-19T00:24:12;5.23;;;4.93;;
9276;SDS011;4676;42.678;23.244;2022-08-19T00:26:40;4.93;;;4.73;;
9276;SDS011;4676;42.678;23.244;2022-08-19T00:29:09;4.97;;;4.77;;
9276;SDS011;4676;42.678;23.244;2022-08-19T00:31:37;5.13;;;4.83;;
9276;SDS011;4676;42.678;23.244;2022-08-19T00:34:04;5.53;;;5.13;;
9276;SDS011;4676;42.678;23.244;2022-08-19T00:36:32;4.67;;;4.27;;
9276;SDS011;4676;42.678;23.244;2022-08-19T00:38:59;5.30;;;5.00;;
9276;SDS011;4676;42.678;23.244;2022-08-19T00:41:26;5.10;;;4.70;;
9276;SDS011;4676;42.678;23.244;2022-08-19T00:43:57;4.93;;;4.63;;
9276;SDS011;4676;42.678;23.244;2022-08-19T00:46:28;5.63;;;5.20;;
9276;SDS011;4676;42.678;23.244;2022-08-19T00:48:55;5.30;;;4.83;;
9276;SDS011;4676;42.678;23.244;2022-08-19T00:51:23;5.53;;;5.23;;
9276;SDS011;4676;42.678;23.244;2022-08-19T00:53:53;5.17;;;4.87;;
9276;SDS011;4676;42.678;23.244;2022-08-19T00:56:21;4.97;;;4.77;;
9276;SDS011;4676;42.678;23.244;2022-08-19T00:58:48;5.30;;;5.00;;
9276;SDS011;4676;42.678;23.244;2022-08-19T01:01:16;5.50;;;5.10;;
9276;SDS011;4676;42.678;23.244;2022-08-19T01:03:42;5.70;;;5.23;;
9276;SDS011;4676;42.678;23.244;2022-08-19T01:06:09;6.13;;;5.03;;
9276;SDS011;4676;42.678;23.244;2022-08-19T01:08:36;5.27;;;4.97;;
9276;SDS011;4676;42.678;23.244;2022-08-19T01:11:04;5.37;;;5.10;;
9276;SDS011;4676;42.678;23.244;2022-08-19T01:13:32;5.43;;;5.00;;
9276;SDS011;4676;42.678;23.244;2022-08-19T01:16:00;5.07;;;4.77;;
9276;SDS011;4676;42.678;23.244;2022-08-19T01:18:31;5.27;;;4.87;;
9276;SDS011;4676;42.678;23.244;2022-08-19T01:21:02;5.73;;;5.23;;
9276;SDS011;4676;42.678;23.244;2022-08-19T01:23:36;4.90;;;4.60;;
9276;SDS011;4676;42.678;23.244;2022-08-19T01:26:10;5.00;;;4.73;;
9276;SDS011;4676;42.678;23.244;2022-08-19T01:28:39;5.30;;;5.00;;
9276;SDS011;4676;42.678;23.244;2022-08-19T01:31:11;5.60;;;5.20;;
9276;SDS011;4676;42.678;23.244;2022-08-19T01:33:40;5.30;;;5.00;;
9276;SDS011;4676;42.678;23.244;2022-08-19T01:36:08;5.93;;;5.47;;
9276;SDS011;4676;42.678;23.244;2022-08-19T01:38:40;5.67;;;4.93;;
9276;SDS011;4676;42.678;23.244;2022-08-19T01:41:09;6.10;;;5.77;;
9276;SDS011;4676;42.678;23.244;2022-08-19T01:43:36;5.57;;;5.27;;
9276;SDS011;4676;42.678;23.244;2022-08-19T01:46:03;5.07;;;4.80;;
9276;SDS011;4676;42.678;23.244;2022-08-19T01:48:32;5.77;;;5.37;;
9276;SDS011;4676;42.678;23.244;2022-08-19T01:51:00;6.07;;;5.37;;
9276;SDS011;4676;42.678;23.244;2022-08-19T01:53:27;5.70;;;5.40;;
9276;SDS011;4676;42.678;23.244;2022-08-19T01:55:55;6.67;;;6.13;;
9276;SDS011;4676;42.678;23.244;2022-08-19T01:58:23;6.60;;;6.20;;
9276;SDS011;4676;42.678;23.244;2022-08-19T02:00:55;6.03;;;5.73;;
9276;SDS011;4676;42.678;23.244;2022-08-19T02:03:22;6.37;;;6.00;;
9276;SDS011;4676;42.678;23.244;2022-08-19T02:05:53;6.50;;;6.03;;
9276;SDS011;4676;42.678;23.244;2022-08-19T02:08:21;6.37;;;5.87;;
9276;SDS011;4676;42.678;23.244;2022-08-19T02:10:47;7.07;;;6.57;;
9276;SDS011;4676;42.678;23.244;2022-08-19T02:13:16;6.77;;;6.37;;
9276;SDS011;4676;42.678;23.244;2022-08-19T02:15:44;6.87;;;6.47;;
9276;SDS011;4676;42.678;23.244;2022-08-19T02:18:10;6.70;;;6.27;;
9276;SDS011;4676;42.678;23.244;2022-08-19T02:20:38;6.87;;;6.47;;
9276;SDS011;4676;42.678;23.244;2022-08-19T02:23:06;6.50;;;6.00;;
9276;SDS011;4676;42.678;23.244;2022-08-19T02:25:33;7.07;;;6.40;;
9276;SDS011;4676;42.678;23.244;2022-08-19T02:28:00;6.63;;;6.13;;
9276;SDS011;4676;42.678;23.244;2022-08-19T02:30:28;7.60;;;7.00;;
9276;SDS011;4676;42.678;23.244;2022-08-19T02:32:55;6.90;;;6.40;;
9276;SDS011;4676;42.678;23.244;2022-08-19T02:35:22;7.07;;;6.57;;
9276;SDS011;4676;42.678;23.244;2022-08-19T02:37:49;7.00;;;6.50;;
9276;SDS011;4676;42.678;23.244;2022-08-19T02:40:34;6.57;;;6.17;;
9276;SDS011;4676;42.678;23.244;2022-08-19T02:43:01;6.50;;;5.90;;
9276;SDS011;4676;42.678;23.244;2022-08-19T02:45:32;7.00;;;6.60;;
9276;SDS011;4676;42.678;23.244;2022-08-19T02:47:59;7.77;;;7.07;;
9276;SDS011;4676;42.678;23.244;2022-08-19T02:50:26;6.70;;;6.30;;
9276;SDS011;4676;42.678;23.244;2022-08-19T02:52:52;7.60;;;7.10;;
9276;SDS011;4676;42.678;23.244;2022-08-19T02:55:19;6.87;;;6.47;;
9276;SDS011;4676;42.678;23.244;2022-08-19T02:57:46;7.37;;;6.67;;
9276;SDS011;4676;42.678;23.244;2022-08-19T03:00:13;7.87;;;7.37;;
9276;SDS011;4676;42.678;23.244;2022-08-19T03:02:42;7.17;;;6.60;;
9276;SDS011;4676;42.678;23.244;2022-08-19T03:05:09;8.20;;;7.43;;
9276;SDS011;4676;42.678;23.244;2022-08-19T03:07:36;7.10;;;6.67;;
9276;SDS011;4676;42.678;23.244;2022-08-19T03:10:03;7.93;;;6.90;;
9276;SDS011;4676;42.678;23.244;2022-08-19T03:12:31;7.13;;;6.63;;
9276;SDS011;4676;42.678;23.244;2022-08-19T03:14:57;6.97;;;6.53;;
9276;SDS011;4676;42.678;23.244;2022-08-19T03:17:25;7.23;;;6.80;;
9276;SDS011;4676;42.678;23.244;2022-08-19T03:19:55;7.40;;;6.70;;
9276;SDS011;4676;42.678;23.244;2022-08-19T03:22:22;7.10;;;6.47;;
9276;SDS011;4676;42.678;23.244;2022-08-19T03:24:50;7.37;;;6.87;;
9276;SDS011;4676;42.678;23.244;2022-08-19T03:27:17;7.40;;;7.00;;
9276;SDS011;4676;42.678;23.244;2022-08-19T03:29:44;6.73;;;6.40;;
9276;SDS011;4676;42.678;23.244;2022-08-19T03:32:10;6.87;;;6.37;;
9276;SDS011;4676;42.678;23.244;2022-08-19T03:34:37;7.60;;;7.00;;
9276;SDS011;4676;42.678;23.244;2022-08-19T03:37:06;8.20;;;6.80;;
9276;SDS011;4676;42.678;23.244;2022-08-19T03:39:37;7.73;;;7.20;;
9276;SDS011;4676;42.678;23.244;2022-08-19T03:42:05;7.90;;;7.30;;
9276;SDS011;4676;42.678;23.244;2022-08-19T03:44:32;15.40;;;11.23;;
9276;SDS011;4676;42.678;23.244;2022-08-19T03:47:01;16.30;;;14.47;;
9276;SDS011;4676;42.678;23.244;2022-08-19T03:49:29;18.07;;;14.87;;
9276;SDS011;4676;42.678;23.244;2022-08-19T03:51:58;8.17;;;7.53;;
9276;SDS011;4676;42.678;23.244;2022-08-19T03:54:27;8.20;;;7.60;;
9276;SDS011;4676;42.678;23.244;2022-08-19T03:56:55;7.60;;;7.20;;
9276;SDS011;4676;42.678;23.244;2022-08-19T03:59:24;8.07;;;7.53;;
9276;SDS011;4676;42.678;23.244;2022-08-19T04:01:57;8.23;;;7.10;;
9276;SDS011;4676;42.678;23.244;2022-08-19T04:04:25;11.63;;;7.17;;
9276;SDS011;4676;42.678;23.244;2022-08-19T04:06:53;7.27;;;6.77;;
9276;SDS011;4676;42.678;23.244;2022-08-19T04:09:20;8.57;;;7.57;;
9276;SDS011;4676;42.678;23.244;2022-08-19T04:11:50;8.40;;;7.23;;
9276;SDS011;4676;42.678;23.244;2022-08-19T04:14:19;8.50;;;7.67;;
9276;SDS011;4676;42.678;23.244;2022-08-19T04:16:48;7.90;;;7.30;;
9276;SDS011;4676;42.678;23.244;2022-08-19T04:19:15;11.27;;;7.37;;
9276;SDS011;4676;42.678;23.244;2022-08-19T04:21:45;10.63;;;7.37;;
9276;SDS011;4676;42.678;23.244;2022-08-19T04:24:13;7.83;;;7.27;;
9276;SDS011;4676;42.678;23.244;2022-08-19T04:26:40;8.00;;;7.20;;
9276;SDS011;4676;42.678;23.244;2022-08-19T04:29:09;9.43;;;8.20;;
9276;SDS011;4676;42.678;23.244;2022-08-19T04:31:38;8.50;;;7.67;;
9276;SDS011;4676;42.678;23.244;2022-08-19T04:34:06;12.10;;;7.97;;
9276;SDS011;4676;42.678;23.244;2022-08-19T04:36:36;10.07;;;7.97;;
9276;SDS011;4676;42.678;23.244;2022-08-19T04:39:06;8.63;;;8.00;;
9276;SDS011;4676;42.678;23.244;2022-08-19T04:41:34;11.67;;;8.37;;
9276;SDS011;4676;42.678;23.244;2022-08-19T04:44:20;8.57;;;7.70;;
9276;SDS011;4676;42.678;23.244;2022-08-19T04:46:48;8.83;;;8.03;;
9276;SDS011;4676;42.678;23.244;2022-08-19T04:49:17;13.50;;;11.13;;
9276;SDS011;4676;42.678;23.244;2022-08-19T04:51:47;10.90;;;9.80;;
9276;SDS011;4676;42.678;23.244;2022-08-19T04:54:14;9.50;;;8.50;;
9276;SDS011;4676;42.678;23.244;2022-08-19T04:56:42;9.23;;;8.27;;
9276;SDS011;4676;42.678;23.244;2022-08-19T04:59:09;8.33;;;7.83;;
9276;SDS011;4676;42.678;23.244;2022-08-19T05:01:38;7.80;;;7.30;;
9276;SDS011;4676;42.678;23.244;2022-08-19T05:04:05;8.57;;;7.63;;
9276;SDS011;4676;42.678;23.244;2022-08-19T05:06:33;8.37;;;7.57;;
9276;SDS011;4676;42.678;23.244;2022-08-19T05:09:00;7.77;;;7.07;;
9276;SDS011;4676;42.678;23.244;2022-08-19T05:11:29;8.47;;;7.80;;
9276;SDS011;4676;42.678;23.244;2022-08-19T05:13:57;9.50;;;7.87;;
9276;SDS011;4676;42.678;23.244;2022-08-19T05:16:24;13.90;;;7.37;;
9276;SDS011;4676;42.678;23.244;2022-08-19T05:18:53;8.53;;;7.77;;
9276;SDS011;4676;42.678;23.244;2022-08-19T05:21:39;12.07;;;7.43;;
9276;SDS011;4676;42.678;23.244;2022-08-19T05:24:24;8.27;;;6.67;;
9276;SDS011;4676;42.678;23.244;2022-08-19T05:26:51;7.20;;;6.57;;
9276;SDS011;4676;42.678;23.244;2022-08-19T05:29:21;9.40;;;7.03;;
9276;SDS011;4676;42.678;23.244;2022-08-19T05:31:50;7.80;;;7.10;;
9276;SDS011;4676;42.678;23.244;2022-08-19T05:34:19;7.50;;;6.83;;
9276;SDS011;4676;42.678;23.244;2022-08-19T05:36:49;8.23;;;7.50;;
9276;SDS011;4676;42.678;23.244;2022-08-19T05:39:22;7.90;;;7.23;;
9276;SDS011;4676;42.678;23.244;2022-08-19T05:41:50;9.80;;;7.53;;
9276;SDS011;4676;42.678;23.244;2022-08-19T05:44:19;17.20;;;9.10;;
9276;SDS011;4676;42.678;23.244;2022-08-19T05:46:47;10.00;;;8.67;;
9276;SDS011;4676;42.678;23.244;2022-08-19T05:49:19;9.77;;;8.00;;
9276;SDS011;4676;42.678;23.244;2022-08-19T05:51:47;8.77;;;7.70;;
9276;SDS011;4676;42.678;23.244;2022-08-19T05:54:15;9.23;;;8.30;;
9276;SDS011;4676;42.678;23.244;2022-08-19T05:56:42;9.13;;;8.33;;
9276;SDS011;4676;42.678;23.244;2022-08-19T05:59:10;16.03;;;8.80;;
9276;SDS011;4676;42.678;23.244;2022-08-19T06:01:37;9.30;;;8.40;;
9276;SDS011;4676;42.678;23.244;2022-08-19T06:04:05;10.60;;;9.60;;
9276;SDS011;4676;42.678;23.244;2022-08-19T06:06:34;12.57;;;8.33;;
9276;SDS011;4676;42.678;23.244;2022-08-19T06:09:01;13.33;;;8.43;;
9276;SDS011;4676;42.678;23.244;2022-08-19T06:11:33;10.57;;;8.40;;
9276;SDS011;4676;42.678;23.244;2022-08-19T06:14:01;10.37;;;9.53;;
9276;SDS011;4676;42.678;23.244;2022-08-19T06:16:29;9.40;;;8.43;;
9276;SDS011;4676;42.678;23.244;2022-08-19T06:18:56;9.77;;;8.97;;
9276;SDS011;4676;42.678;23.244;2022-08-19T06:21:27;17.47;;;8.77;;
9276;SDS011;4676;42.678;23.244;2022-08-19T06:23:56;15.00;;;8.67;;
9276;SDS011;4676;42.678;23.244;2022-08-19T06:26:23;11.70;;;9.27;;
9276;SDS011;4676;42.678;23.244;2022-08-19T06:28:51;10.23;;;8.30;;
9276;SDS011;4676;42.678;23.244;2022-08-19T06:31:19;9.13;;;8.27;;
9276;SDS011;4676;42.678;23.244;2022-08-19T06:33:48;13.00;;;9.87;;
9276;SDS011;4676;42.678;23.244;2022-08-19T06:36:19;9.90;;;8.87;;
9276;SDS011;4676;42.678;23.244;2022-08-19T06:38:57;11.77;;;8.23;;
9276;SDS011;4676;42.678;23.244;2022-08-19T06:41:25;17.50;;;8.30;;
9276;SDS011;4676;42.678;23.244;2022-08-19T06:43:52;8.57;;;7.67;;
9276;SDS011;4676;42.678;23.244;2022-08-19T06:46:19;12.20;;;8.53;;
9276;SDS011;4676;42.678;23.244;2022-08-19T06:48:46;12.27;;;9.13;;
9276;SDS011;4676;42.678;23.244;2022-08-19T06:51:13;9.10;;;8.20;;
9276;SDS011;4676;42.678;23.244;2022-08-19T06:53:43;10.07;;;9.17;;
9276;SDS011;4676;42.678;23.244;2022-08-19T06:56:13;11.83;;;9.03;;
9276;SDS011;4676;42.678;23.244;2022-08-19T06:58:40;10.10;;;9.10;;
9276;SDS011;4676;42.678;23.244;2022-08-19T07:01:07;11.87;;;9.20;;
9276;SDS011;4676;42.678;23.244;2022-08-19T07:03:36;20.10;;;9.33;;
9276;SDS011;4676;42.678;23.244;2022-08-19T07:06:03;13.07;;;9.13;;
9276;SDS011;4676;42.678;23.244;2022-08-19T07:08:32;13.57;;;8.57;;
9276;SDS011;4676;42.678;23.244;2022-08-19T07:10:59;11.23;;;9.37;;
9276;SDS011;4676;42.678;23.244;2022-08-19T07:13:27;11.57;;;9.33;;
9276;SDS011;4676;42.678;23.244;2022-08-19T07:15:54;15.30;;;9.37;;
9276;SDS011;4676;42.678;23.244;2022-08-19T07:18:21;12.83;;;9.23;;
9276;SDS011;4676;42.678;23.244;2022-08-19T07:20:47;15.07;;;9.00;;
9276;SDS011;4676;42.678;23.244;2022-08-19T07:23:14;9.33;;;8.53;;
9276;SDS011;4676;42.678;23.244;2022-08-19T07:25:41;11.17;;;8.87;;
9276;SDS011;4676;42.678;23.244;2022-08-19T07:28:08;15.30;;;8.73;;
9276;SDS011;4676;42.678;23.244;2022-08-19T07:30:39;17.00;;;10.33;;
9276;SDS011;4676;42.678;23.244;2022-08-19T07:33:06;13.60;;;10.33;;
9276;SDS011;4676;42.678;23.244;2022-08-19T07:35:33;18.47;;;9.40;;
9276;SDS011;4676;42.678;23.244;2022-08-19T07:38:00;10.73;;;9.00;;
9276;SDS011;4676;42.678;23.244;2022-08-19T07:40:29;14.17;;;8.93;;
9276;SDS011;4676;42.678;23.244;2022-08-19T07:42:56;12.03;;;8.37;;
9276;SDS011;4676;42.678;23.244;2022-08-19T07:45:23;17.73;;;9.10;;
9276;SDS011;4676;42.678;23.244;2022-08-19T07:47:51;10.90;;;8.77;;
9276;SDS011;4676;42.678;23.244;2022-08-19T07:50:19;8.97;;;8.07;;
9276;SDS011;4676;42.678;23.244;2022-08-19T07:52:47;10.23;;;9.33;;
9276;SDS011;4676;42.678;23.244;2022-08-19T07:55:15;11.33;;;7.83;;
9276;SDS011;4676;42.678;23.244;2022-08-19T07:57:44;8.60;;;7.70;;
9276;SDS011;4676;42.678;23.244;2022-08-19T08:00:11;8.63;;;7.73;;
9276;SDS011;4676;42.678;23.244;2022-08-19T08:02:38;9.10;;;7.00;;
9276;SDS011;4676;42.678;23.244;2022-08-19T08:05:09;11.83;;;7.67;;
9276;SDS011;4676;42.678;23.244;2022-08-19T08:07:53;8.07;;;7.37;;
9276;SDS011;4676;42.678;23.244;2022-08-19T08:10:38;8.47;;;7.57;;
9276;SDS011;4676;42.678;23.244;2022-08-19T08:13:05;10.57;;;7.43;;
9276;SDS011;4676;42.678;23.244;2022-08-19T08:15:31;13.50;;;7.07;;
9276;SDS011;4676;42.678;23.244;2022-08-19T08:17:58;7.10;;;6.50;;
9276;SDS011;4676;42.678;23.244;2022-08-19T08:20:26;13.87;;;7.00;;
9276;SDS011;4676;42.678;23.244;2022-08-19T08:22:53;7.70;;;6.37;;
9276;SDS011;4676;42.678;23.244;2022-08-19T08:25:45;12.00;;;6.43;;
9276;SDS011;4676;42.678;23.244;2022-08-19T08:28:13;7.77;;;5.70;;
9276;SDS011;4676;42.678;23.244;2022-08-19T08:30:40;14.80;;;5.37;;
9276;SDS011;4676;42.678;23.244;2022-08-19T08:33:08;5.93;;;5.23;;
9276;SDS011;4676;42.678;23.244;2022-08-19T08:35:38;5.80;;;5.30;;
9276;SDS011;4676;42.678;23.244;2022-08-19T08:38:07;12.57;;;5.60;;
9276;SDS011;4676;42.678;23.244;2022-08-19T08:40:38;8.63;;;5.97;;
9276;SDS011;4676;42.678;23.244;2022-08-19T08:43:09;5.57;;;5.13;;
9276;SDS011;4676;42.678;23.244;2022-08-19T08:45:47;6.27;;;4.77;;
9276;SDS011;4676;42.678;23.244;2022-08-19T08:48:20;5.13;;;4.63;;
9276;SDS011;4676;42.678;23.244;2022-08-19T08:50:52;5.23;;;4.83;;
9276;SDS011;4676;42.678;23.244;2022-08-19T08:53:22;7.03;;;5.67;;
9276;SDS011;4676;42.678;23.244;2022-08-19T08:55:50;5.07;;;4.43;;
9276;SDS011;4676;42.678;23.244;2022-08-19T08:58:19;4.43;;;4.13;;
9276;SDS011;4676;42.678;23.244;2022-08-19T09:00:51;4.20;;;3.87;;
9276;SDS011;4676;42.678;23.244;2022-08-19T09:03:19;4.47;;;4.07;;
9276;SDS011;4676;42.678;23.244;2022-08-19T09:05:50;5.83;;;5.07;;
9276;SDS011;4676;42.678;23.244;2022-08-19T09:08:28;5.47;;;5.07;;
9276;SDS011;4676;42.678;23.244;2022-08-19T09:11:03;4.83;;;4.50;;
9276;SDS011;4676;42.678;23.244;2022-08-19T09:13:37;5.73;;;3.90;;
9276;SDS011;4676;42.678;23.244;2022-08-19T09:16:11;4.70;;;4.27;;
9276;SDS011;4676;42.678;23.244;2022-08-19T09:18:41;3.60;;;3.40;;
9276;SDS011;4676;42.678;23.244;2022-08-19T09:21:10;4.23;;;4.03;;
9276;SDS011;4676;42.678;23.244;2022-08-19T09:23:38;5.20;;;4.07;;
9276;SDS011;4676;42.678;23.244;2022-08-19T09:26:06;4.90;;;4.40;;
9276;SDS011;4676;42.678;23.244;2022-08-19T09:28:35;4.93;;;4.53;;
9276;SDS011;4676;42.678;23.244;2022-08-19T09:31:02;4.13;;;3.90;;
9276;SDS011;4676;42.678;23.244;2022-08-19T09:33:28;6.70;;;4.33;;
9276;SDS011;4676;42.678;23.244;2022-08-19T09:36:01;5.87;;;4.53;;
9276;SDS011;4676;42.678;23.244;2022-08-19T09:38:33;5.20;;;4.23;;
9276;SDS011;4676;42.678;23.244;2022-08-19T09:41:02;4.00;;;3.70;;
9276;SDS011;4676;42.678;23.244;2022-08-19T09:43:30;3.87;;;3.60;;
9276;SDS011;4676;42.678;23.244;2022-08-19T09:45:57;4.57;;;3.67;;
9276;SDS011;4676;42.678;23.244;2022-08-19T09:48:25;3.90;;;3.70;;
9276;SDS011;4676;42.678;23.244;2022-08-19T09:50:52;3.47;;;3.27;;
9276;SDS011;4676;42.678;23.244;2022-08-19T09:53:19;3.50;;;3.30;;
9276;SDS011;4676;42.678;23.244;2022-08-19T09:55:48;3.67;;;3.47;;
9276;SDS011;4676;42.678;23.244;2022-08-19T09:58:16;3.90;;;3.60;;
9276;SDS011;4676;42.678;23.244;2022-08-19T10:00:43;8.23;;;3.63;;
9276;SDS011;4676;42.678;23.244;2022-08-19T10:03:10;3.77;;;3.40;;
9276;SDS011;4676;42.678;23.244;2022-08-19T10:05:37;3.70;;;3.40;;
9276;SDS011;4676;42.678;23.244;2022-08-19T10:08:16;3.20;;;3.10;;
9276;SDS011;4676;42.678;23.244;2022-08-19T10:10:45;4.70;;;3.40;;
9276;SDS011;4676;42.678;23.244;2022-08-19T10:13:15;3.70;;;3.47;;
9276;SDS011;4676;42.678;23.244;2022-08-19T10:15:46;3.50;;;3.00;;
9276;SDS011;4676;42.678;23.244;2022-08-19T10:18:15;8.50;;;3.60;;
9276;SDS011;4676;42.678;23.244;2022-08-19T10:20:43;3.27;;;3.17;;
9276;SDS011;4676;42.678;23.244;2022-08-19T10:23:10;4.83;;;3.50;;
9276;SDS011;4676;42.678;23.244;2022-08-19T10:25:37;3.40;;;3.20;;
9276;SDS011;4676;42.678;23.244;2022-08-19T10:28:05;4.17;;;3.43;;
9276;SDS011;4676;42.678;23.244;2022-08-19T10:30:33;4.43;;;3.60;;
9276;SDS011;4676;42.678;23.244;2022-08-19T10:33:01;3.70;;;3.50;;
9276;SDS011;4676;42.678;23.244;2022-08-19T10:35:28;4.07;;;3.87;;
9276;SDS011;4676;42.678;23.244;2022-08-19T10:37:55;4.40;;;4.00;;
9276;SDS011;4676;42.678;23.244;2022-08-19T10:40:24;5.10;;;3.67;;
9276;SDS011;4676;42.678;23.244;2022-08-19T10:42:51;3.83;;;3.50;;
9276;SDS011;4676;42.678;23.244;2022-08-19T10:45:18;3.57;;;3.37;;
9276;SDS011;4676;42.678;23.244;2022-08-19T10:47:48;3.90;;;3.60;;
9276;SDS011;4676;42.678;23.244;2022-08-19T10:50:15;4.90;;;3.10;;
9276;SDS011;4676;42.678;23.244;2022-08-19T10:53:02;4.23;;;3.93;;
9276;SDS011;4676;42.678;23.244;2022-08-19T10:55:30;5.17;;;4.47;;
9276;SDS011;4676;42.678;23.244;2022-08-19T10:58:15;4.63;;;3.83;;
9276;SDS011;4676;42.678;23.244;2022-08-19T11:00:51;4.10;;;3.80;;
9276;SDS011;4676;42.678;23.244;2022-08-19T11:03:20;4.63;;;4.23;;
9276;SDS011;4676;42.678;23.244;2022-08-19T11:05:56;5.30;;;4.63;;
9276;SDS011;4676;42.678;23.244;2022-08-19T11:08:24;4.00;;;3.80;;
9276;SDS011;4676;42.678;23.244;2022-08-19T11:10:52;5.57;;;4.03;;
9276;SDS011;4676;42.678;23.244;2022-08-19T11:13:21;4.83;;;4.50;;
9276;SDS011;4676;42.678;23.244;2022-08-19T11:15:56;4.50;;;4.20;;
9276;SDS011;4676;42.678;23.244;2022-08-19T11:18:25;4.37;;;4.07;;
9276;SDS011;4676;42.678;23.244;2022-08-19T11:20:52;6.23;;;4.33;;
9276;SDS011;4676;42.678;23.244;2022-08-19T11:23:18;4.63;;;4.40;;
9276;SDS011;4676;42.678;23.244;2022-08-19T11:25:45;3.77;;;3.57;;
9276;SDS011;4676;42.678;23.244;2022-08-19T11:28:12;5.33;;;4.37;;
9276;SDS011;4676;42.678;23.244;2022-08-19T11:30:39;4.00;;;3.77;;
9276;SDS011;4676;42.678;23.244;2022-08-19T11:33:06;4.53;;;4.00;;
9276;SDS011;4676;42.678;23.244;2022-08-19T11:35:39;4.97;;;4.50;;
9276;SDS011;4676;42.678;23.244;2022-08-19T11:38:06;3.90;;;3.60;;
9276;SDS011;4676;42.678;23.244;2022-08-19T11:40:33;3.97;;;3.67;;
9276;SDS011;4676;42.678;23.244;2022-08-19T11:43:00;5.90;;;4.20;;
9276;SDS011;4676;42.678;23.244;2022-08-19T11:45:27;4.23;;;3.83;;
9276;SDS011;4676;42.678;23.244;2022-08-19T11:47:54;4.50;;;4.20;;
9276;SDS011;4676;42.678;23.244;2022-08-19T11:50:23;10.33;;;4.13;;
9276;SDS011;4676;42.678;23.244;2022-08-19T11:52:54;4.97;;;4.50;;
9276;SDS011;4676;42.678;23.244;2022-08-19T11:55:22;4.53;;;4.13;;
9276;SDS011;4676;42.678;23.244;2022-08-19T11:57:48;4.97;;;3.97;;
9276;SDS011;4676;42.678;23.244;2022-08-19T12:00:17;4.30;;;4.03;;
9276;SDS011;4676;42.678;23.244;2022-08-19T12:02:44;4.57;;;4.27;;
9276;SDS011;4676;42.678;23.244;2022-08-19T12:05:11;6.07;;;4.57;;
9276;SDS011;4676;42.678;23.244;2022-08-19T12:07:38;4.67;;;4.37;;
9276;SDS011;4676;42.678;23.244;2022-08-19T12:10:10;4.30;;;4.03;;
9276;SDS011;4676;42.678;23.244;2022-08-19T12:12:37;4.57;;;4.20;;
9276;SDS011;4676;42.678;23.244;2022-08-19T12:15:07;4.43;;;4.03;;
9276;SDS011;4676;42.678;23.244;2022-08-19T12:17:35;4.27;;;4.03;;
9276;SDS011;4676;42.678;23.244;2022-08-19T12:20:03;4.87;;;4.37;;
9276;SDS011;4676;42.678;23.244;2022-08-19T12:22:31;4.50;;;4.20;;
9276;SDS011;4676;42.678;23.244;2022-08-19T12:24:58;5.20;;;4.70;;
9276;SDS011;4676;42.678;23.244;2022-08-19T12:27:26;4.13;;;3.90;;
9276;SDS011;4676;42.678;23.244;2022-08-19T12:29:53;5.37;;;4.10;;
9276;SDS011;4676;42.678;23.244;2022-08-19T12:32:20;7.20;;;4.63;;
9276;SDS011;4676;42.678;23.244;2022-08-19T12:34:46;6.50;;;3.90;;
9276;SDS011;4676;42.678;23.244;2022-08-19T12:37:13;4.43;;;4.00;;
9276;SDS011;4676;42.678;23.244;2022-08-19T12:39:41;4.03;;;3.73;;
9276;SDS011;4676;42.678;23.244;2022-08-19T12:42:08;4.50;;;4.10;;
9276;SDS011;4676;42.678;23.244;2022-08-19T12:44:38;4.37;;;3.93;;
9276;SDS011;4676;42.678;23.244;2022-08-19T12:47:06;4.27;;;4.07;;
9276;SDS011;4676;42.678;23.244;2022-08-19T12:49:34;3.90;;;3.60;;
9276;SDS011;4676;42.678;23.244;2022-08-19T12:52:02;3.97;;;3.67;;
9276;SDS011;4676;42.678;23.244;2022-08-19T12:54:29;4.93;;;3.80;;
9276;SDS011;4676;42.678;23.244;2022-08-19T12:56:57;4.97;;;4.43;;
9276;SDS011;4676;42.678;23.244;2022-08-19T12:59:24;3.70;;;3.50;;
9276;SDS011;4676;42.678;23.244;2022-08-19T13:01:53;7.47;;;4.20;;
9276;SDS011;4676;42.678;23.244;2022-08-19T13:04:19;5.40;;;3.90;;
9276;SDS011;4676;42.678;23.244;2022-08-19T13:06:46;4.73;;;4.40;;
9276;SDS011;4676;42.678;23.244;2022-08-19T13:09:13;5.13;;;3.73;;
9276;SDS011;4676;42.678;23.244;2022-08-19T13:11:40;4.20;;;3.50;;
9276;SDS011;4676;42.678;23.244;2022-08-19T13:14:08;9.57;;;4.23;;
9276;SDS011;4676;42.678;23.244;2022-08-19T13:16:36;4.33;;;3.93;;
9276;SDS011;4676;42.678;23.244;2022-08-19T13:19:05;3.83;;;3.53;;
9276;SDS011;4676;42.678;23.244;2022-08-19T13:21:32;5.50;;;3.57;;
9276;SDS011;4676;42.678;23.244;2022-08-19T13:23:59;3.93;;;3.73;;
9276;SDS011;4676;42.678;23.244;2022-08-19T13:26:26;4.30;;;4.00;;
9276;SDS011;4676;42.678;23.244;2022-08-19T13:28:53;3.90;;;3.60;;
9276;SDS011;4676;42.678;23.244;2022-08-19T13:31:39;4.27;;;3.87;;
9276;SDS011;4676;42.678;23.244;2022-08-19T13:34:30;4.03;;;3.70;;
9276;SDS011;4676;42.678;23.244;2022-08-19T13:36:59;6.63;;;4.13;;
9276;SDS011;4676;42.678;23.244;2022-08-19T13:39:28;5.47;;;3.60;;
9276;SDS011;4676;42.678;23.244;2022-08-19T13:41:54;4.50;;;4.10;;
9276;SDS011;4676;42.678;23.244;2022-08-19T13:44:22;4.43;;;4.00;;
9276;SDS011;4676;42.678;23.244;2022-08-19T13:46:49;5.30;;;3.90;;
9276;SDS011;4676;42.678;23.244;2022-08-19T13:49:18;3.80;;;3.60;;
9276;SDS011;4676;42.678;23.244;2022-08-19T13:51:46;5.03;;;4.30;;
9276;SDS011;4676;42.678;23.244;2022-08-19T13:54:13;7.23;;;3.97;;
9276;SDS011;4676;42.678;23.244;2022-08-19T13:56:41;4.37;;;3.80;;
9276;SDS011;4676;42.678;23.244;2022-08-19T13:59:09;8.03;;;4.13;;
9276;SDS011;4676;42.678;23.244;2022-08-19T14:01:36;4.47;;;4.13;;
9276;SDS011;4676;42.678;23.244;2022-08-19T14:04:03;4.43;;;4.13;;
9276;SDS011;4676;42.678;23.244;2022-08-19T14:06:30;10.17;;;7.10;;
9276;SDS011;4676;42.678;23.244;2022-08-19T14:08:59;4.80;;;4.40;;
9276;SDS011;4676;42.678;23.244;2022-08-19T14:11:27;6.03;;;4.33;;
9276;SDS011;4676;42.678;23.244;2022-08-19T14:13:53;6.33;;;3.60;;
9276;SDS011;4676;42.678;23.244;2022-08-19T14:16:20;6.47;;;4.10;;
9276;SDS011;4676;42.678;23.244;2022-08-19T14:18:47;8.87;;;5.10;;
9276;SDS011;4676;42.678;23.244;2022-08-19T14:21:15;5.13;;;4.23;;
9276;SDS011;4676;42.678;23.244;2022-08-19T14:23:43;6.33;;;5.83;;
9276;SDS011;4676;42.678;23.244;2022-08-19T14:26:13;11.27;;;7.57;;
9276;SDS011;4676;42.678;23.244;2022-08-19T14:28:42;4.80;;;4.60;;
9276;SDS011;4676;42.678;23.244;2022-08-19T14:31:10;5.13;;;4.73;;
9276;SDS011;4676;42.678;23.244;2022-08-19T14:33:37;22.83;;;20.30;;
9276;SDS011;4676;42.678;23.244;2022-08-19T14:36:05;6.70;;;6.03;;
9276;SDS011;4676;42.678;23.244;2022-08-19T14:38:32;7.90;;;4.87;;
9276;SDS011;4676;42.678;23.244;2022-08-19T14:41:12;5.00;;;4.70;;
9276;SDS011;4676;42.678;23.244;2022-08-19T14:43:41;6.77;;;6.17;;
9276;SDS011;4676;42.678;23.244;2022-08-19T14:46:11;5.70;;;5.20;;
9276;SDS011;4676;42.678;23.244;2022-08-19T14:48:38;5.20;;;4.80;;
9276;SDS011;4676;42.678;23.244;2022-08-19T14:51:05;16.33;;;11.70;;
9276;SDS011;4676;42.678;23.244;2022-08-19T14:53:32;8.13;;;7.07;;
9276;SDS011;4676;42.678;23.244;2022-08-19T14:56:00;14.47;;;7.47;;
9276;SDS011;4676;42.678;23.244;2022-08-19T14:58:28;6.83;;;6.43;;
9276;SDS011;4676;42.678;23.244;2022-08-19T15:00:56;6.20;;;5.80;;
9276;SDS011;4676;42.678;23.244;2022-08-19T15:03:24;6.27;;;5.33;;
9276;SDS011;4676;42.678;23.244;2022-08-19T15:05:52;5.23;;;4.93;;
9276;SDS011;4676;42.678;23.244;2022-08-19T15:08:19;6.77;;;4.57;;